LYBE/BEG METAR and TAF weather

Enter ICAO airport designator
Station Type Date Time Source
LYBE METAR 2020/07/07 08:30 UTC NOAA

LYBE 070830Z 30015KT 9999 SCT043 17/12 Q1017 NOSIG


Station Type Date Time Source
LYBE Decoded METAR 2020/07/07 08:30 UTC NOAA

Beograd / Surcin, Serbia and Montenegro (LYBE) 44-49N 020-17E 99M
Jul 07, 2020 - 04:30 AM EDT / 2020.07.07 0830 UTC
Wind: from the WNW (300 degrees) at 17 MPH (15 KT):0
Visibility: greater than 7 mile(s):0
Sky conditions: partly cloudy
Temperature: 62 F (17 C)
Dew Point: 53 F (12 C)
Relative Humidity: 72%
Pressure (altimeter): 30.03 in. Hg (1017 hPa)
ob: LYBE 070830Z 30015KT 9999 SCT043 17/12 Q1017 NOSIG
cycle: 8

Station Type Date Time Source
LYBE TAF 2020/07/07 06:21 UTC NOAA

TAF LYBE 070500Z 0706/0806 31018G28KT 9999 SCT012 SCT033 TX20/0713Z TN13/0805Z PROB30
TEMPO 0706/0708 5000 RA
BECMG 0712/0714 27008KT

Example: see airport list